Time;durP1;ratioP1;P1;durP2;ratioP2;P2;SDS_P1;SDS_P2;PMS_P1;PMS_P2;Temp;Humidity;BMP_temperature;BMP_pressure;BME280_temperature;BME280_humidity;BME280_pressure;Samples;Min_cycle;Max_cycle;Signal;HPM_P1;HPM_P2
2023/01/27 00:00:49;;;;;;;2.50;2.30;;;4.50;99.90;;;;;;5015766;28;20501;-62
2023/01/27 00:03:18;;;;;;;4.33;2.40;;;4.50;99.90;;;;;;5032953;28;20459;-62
2023/01/27 00:05:47;;;;;;;4.13;2.40;;;4.40;99.90;;;;;;5045547;28;20515;-62
2023/01/27 00:08:16;;;;;;;3.23;2.77;;;4.40;99.90;;;;;;5045761;28;21029;-62
2023/01/27 00:10:45;;;;;;;3.70;2.27;;;4.40;99.90;;;;;;5038454;28;20487;-62
2023/01/27 00:13:30;;;;;;;3.50;2.40;;;4.40;99.90;;;;;;5032792;28;20487;-62
2023/01/27 00:15:59;;;;;;;3.20;2.30;;;4.50;99.90;;;;;;5033181;28;20477;-62
2023/01/27 00:18:27;;;;;;;2.80;2.23;;;4.40;99.90;;;;;;5035227;28;20512;-62
2023/01/27 00:26:27;;;;;;;8.07;2.63;;;4.40;99.90;;;;;;5032035;28;20495;-62
2023/01/27 00:28:55;;;;;;;2.80;2.60;;;4.40;99.90;;;;;;5032987;28;20530;-62
2023/01/27 00:34:09;;;;;;;3.73;2.17;;;4.50;99.90;;;;;;5032570;28;20519;-62
2023/01/27 00:36:40;;;;;;;4.07;2.10;;;4.50;99.90;;;;;;5036934;28;20819;-62
2023/01/27 00:39:11;;;;;;;3.63;2.30;;;4.60;99.90;;;;;;5051377;28;20466;-62
2023/01/27 00:41:40;;;;;;;2.10;1.90;;;4.60;99.90;;;;;;5021965;28;20467;-62
2023/01/27 00:44:11;;;;;;;2.20;2.00;;;4.60;99.90;;;;;;5012922;28;20459;-62
2023/01/27 00:46:41;;;;;;;2.90;2.17;;;4.60;99.90;;;;;;5012777;28;20558;-62
2023/01/27 00:49:12;;;;;;;3.30;2.10;;;4.60;99.90;;;;;;5012821;28;20594;-62
2023/01/27 00:51:40;;;;;;;3.10;2.00;;;4.60;99.90;;;;;;5012660;28;20485;-62
2023/01/27 00:54:08;;;;;;;4.20;2.03;;;4.60;99.90;;;;;;5012737;28;20573;-62
2023/01/27 00:56:37;;;;;;;3.47;2.47;;;4.60;99.90;;;;;;5032470;28;20471;-62
2023/01/27 00:59:07;;;;;;;2.70;2.10;;;4.60;99.90;;;;;;5032808;28;20530;-62
2023/01/27 01:01:36;;;;;;;2.80;2.00;;;4.60;99.90;;;;;;5031607;28;20569;-62
2023/01/27 01:04:04;;;;;;;3.27;2.13;;;4.60;99.90;;;;;;5047570;28;20523;-62
2023/01/27 01:06:32;;;;;;;2.80;2.07;;;4.60;99.90;;;;;;5040598;28;20466;-62
2023/01/27 01:09:00;;;;;;;4.37;2.23;;;4.60;99.90;;;;;;5051107;28;20476;-62
2023/01/27 01:11:29;;;;;;;3.37;2.40;;;4.50;99.90;;;;;;5031793;28;21036;-62
2023/01/27 01:13:57;;;;;;;3.27;2.37;;;4.50;99.90;;;;;;5032214;28;20490;-62
2023/01/27 01:16:26;;;;;;;3.23;2.40;;;4.60;99.90;;;;;;5032605;28;20461;-62
2023/01/27 01:18:54;;;;;;;3.30;2.30;;;4.50;99.90;;;;;;5031029;28;20471;-62
2023/01/27 01:21:22;;;;;;;2.80;2.30;;;4.60;99.90;;;;;;5032327;28;20860;-62
2023/01/27 01:23:50;;;;;;;3.47;2.70;;;4.60;99.90;;;;;;5032157;28;20464;-62
2023/01/27 01:26:19;;;;;;;2.90;2.23;;;4.60;99.90;;;;;;5014248;28;21076;-62
2023/01/27 01:28:47;;;;;;;3.77;2.57;;;4.50;99.90;;;;;;5012558;28;20472;-62
2023/01/27 01:31:17;;;;;;;3.47;2.47;;;4.50;99.90;;;;;;5018541;28;20540;-62
2023/01/27 01:33:48;;;;;;;3.50;2.30;;;4.50;99.90;;;;;;5031509;28;20495;-62
2023/01/27 01:36:18;;;;;;;3.57;2.47;;;4.50;99.90;;;;;;5043379;28;20470;-62
2023/01/27 01:38:46;;;;;;;4.13;2.33;;;4.40;99.90;;;;;;5052448;28;21015;-62
2023/01/27 01:41:17;;;;;;;4.90;2.30;;;4.40;99.90;;;;;;5038940;28;20995;-62
2023/01/27 01:43:46;;;;;;;4.40;2.37;;;4.50;99.90;;;;;;5034235;28;20984;-62
2023/01/27 01:46:14;;;;;;;3.97;2.43;;;4.50;99.90;;;;;;5035650;28;20469;-62
2023/01/27 01:48:46;;;;;;;2.50;2.03;;;4.40;99.90;;;;;;5035319;28;20462;-62
2023/01/27 01:51:17;;;;;;;3.90;2.73;;;4.40;99.90;;;;;;5034270;28;20463;-62
2023/01/27 01:53:50;;;;;;;4.30;3.03;;;4.40;99.90;;;;;;5035273;28;20478;-62
2023/01/27 01:56:23;;;;;;;3.03;2.70;;;4.40;99.90;;;;;;5019085;28;20982;-62
2023/01/27 01:58:54;;;;;;;6.83;3.20;;;4.40;99.90;;;;;;5014315;28;20495;-62
2023/01/27 02:01:22;;;;;;;4.07;2.40;;;4.30;99.90;;;;;;5020927;28;20502;-62
2023/01/27 02:03:56;;;;;;;4.07;2.63;;;4.30;99.90;;;;;;5034986;28;20494;-62
2023/01/27 02:06:25;;;;;;;4.33;3.10;;;4.30;99.90;;;;;;5058611;28;20459;-62
2023/01/27 02:08:54;;;;;;;3.87;3.10;;;4.30;99.90;;;;;;5052205;28;20503;-62
2023/01/27 02:11:23;;;;;;;3.30;3.00;;;4.30;99.90;;;;;;5034839;28;20466;-62
2023/01/27 02:13:52;;;;;;;3.70;3.00;;;4.30;99.90;;;;;;5035098;28;20491;-62
2023/01/27 02:16:20;;;;;;;4.20;3.30;;;4.30;99.90;;;;;;5035129;28;20482;-63
2023/01/27 02:18:49;;;;;;;6.47;3.53;;;4.20;99.90;;;;;;5035119;28;20498;-62
2023/01/27 02:21:18;;;;;;;4.40;3.37;;;4.30;99.90;;;;;;5034895;28;20473;-62
2023/01/27 02:23:56;;;;;;;3.77;3.07;;;4.30;99.90;;;;;;5035036;28;20971;-63
2023/01/27 02:26:30;;;;;;;4.90;2.97;;;4.20;99.90;;;;;;5018600;28;20996;-62
2023/01/27 02:29:00;;;;;;;5.07;3.13;;;4.20;99.90;;;;;;5013994;28;20475;-62
2023/01/27 02:31:29;;;;;;;4.07;3.50;;;4.20;99.90;;;;;;5022746;28;20524;-62
2023/01/27 02:34:02;;;;;;;3.67;3.27;;;4.20;99.90;;;;;;5031420;28;20482;-62
2023/01/27 02:36:34;;;;;;;3.20;2.90;;;4.20;99.90;;;;;;5042691;28;21029;-63
2023/01/27 02:39:05;;;;;;;3.70;3.40;;;4.20;99.90;;;;;;5053688;28;20968;-62
2023/01/27 02:41:39;;;;;;;3.47;3.17;;;4.20;99.90;;;;;;5034498;28;20570;-62
2023/01/27 02:44:08;;;;;;;3.60;3.07;;;4.20;99.90;;;;;;5033313;28;20471;-62
2023/01/27 02:46:37;;;;;;;6.03;3.33;;;4.20;99.90;;;;;;5032308;28;20502;-62
2023/01/27 02:49:05;;;;;;;5.27;3.30;;;4.20;99.90;;;;;;5033272;28;20990;-62
2023/01/27 02:51:33;;;;;;;4.00;3.17;;;4.20;99.90;;;;;;5034366;28;20536;-63
2023/01/27 02:54:02;;;;;;;4.87;3.60;;;4.20;99.90;;;;;;5032809;28;20475;-62
2023/01/27 02:56:30;;;;;;;6.90;3.40;;;4.20;99.90;;;;;;5063850;28;21071;-62
2023/01/27 02:58:59;;;;;;;5.40;3.60;;;4.20;99.90;;;;;;5032985;28;21108;-62
2023/01/27 03:01:35;;;;;;;3.60;3.20;;;4.20;99.90;;;;;;5025004;28;20486;-62
2023/01/27 03:04:04;;;;;;;4.07;3.33;;;4.10;99.90;;;;;;5051128;28;21250;-62
2023/01/27 03:06:33;;;;;;;3.97;3.57;;;4.10;99.90;;;;;;5045809;28;20472;-62
2023/01/27 03:09:01;;;;;;;6.30;3.93;;;4.10;99.90;;;;;;5052906;28;20463;-63
2023/01/27 03:14:17;;;;;;;7.17;4.10;;;4.10;99.90;;;;;;5032680;28;20478;-63
2023/01/27 03:19:32;;;;;;;5.17;3.93;;;4.10;99.90;;;;;;5032868;28;20482;-62
2023/01/27 03:22:02;;;;;;;4.63;4.23;;;4.00;99.90;;;;;;5012702;28;21013;-62
2023/01/27 03:24:32;;;;;;;5.33;4.20;;;4.10;99.90;;;;;;5012717;28;20514;-62
2023/01/27 03:27:05;;;;;;;6.33;4.50;;;4.10;99.90;;;;;;5012618;28;20475;-63
2023/01/27 03:29:57;;;;;;;5.03;4.33;;;4.10;99.90;;;;;;5016997;28;20985;-62
2023/01/27 03:32:27;;;;;;;7.73;4.67;;;4.10;99.90;;;;;;5031708;28;20848;-62
2023/01/27 03:35:15;;;;;;;6.43;4.97;;;4.10;99.90;;;;;;5042236;28;20542;-62
2023/01/27 03:46:21;;;;;;;5.40;4.90;;;4.10;99.90;;;;;;5032082;28;20910;-62
2023/01/27 03:48:50;;;;;;;6.30;4.80;;;4.10;99.90;;;;;;5033154;28;20455;-62
2023/01/27 03:51:19;;;;;;;5.87;4.67;;;4.10;99.90;;;;;;5018802;28;20970;-62
2023/01/27 03:53:48;;;;;;;5.83;4.90;;;4.10;99.90;;;;;;5013333;28;20459;-62
2023/01/27 03:56:18;;;;;;;5.60;5.10;;;4.00;99.90;;;;;;5013750;28;21001;-62
2023/01/27 03:58:48;;;;;;;8.60;4.80;;;4.10;99.90;;;;;;5020287;28;20921;-62
2023/01/27 04:01:21;;;;;;;5.90;4.80;;;4.10;99.90;;;;;;5035195;28;20482;-62
2023/01/27 04:06:55;;;;;;;5.67;4.47;;;4.10;99.90;;;;;;5036845;28;20466;-62
2023/01/27 04:09:26;;;;;;;5.57;4.60;;;4.10;99.90;;;;;;5025240;28;20467;-62
2023/01/27 04:11:53;;;;;;;4.57;4.17;;;4.10;99.90;;;;;;5032913;28;20463;-62
2023/01/27 04:14:23;;;;;;;4.80;4.30;;;4.10;99.90;;;;;;5029485;28;20506;-62
2023/01/27 04:16:53;;;;;;;4.63;4.23;;;4.10;99.90;;;;;;5031985;28;20943;-62
2023/01/27 04:19:22;;;;;;;5.73;3.97;;;4.10;99.90;;;;;;5032899;28;20974;-62
2023/01/27 04:21:50;;;;;;;5.20;4.30;;;4.10;99.90;;;;;;5032945;28;20463;-62
2023/01/27 04:24:22;;;;;;;5.17;4.50;;;4.10;99.90;;;;;;5033091;28;20958;-63
2023/01/27 04:26:54;;;;;;;6.50;4.03;;;4.10;99.90;;;;;;5014557;28;20527;-62
2023/01/27 04:29:23;;;;;;;5.97;4.27;;;4.10;99.90;;;;;;5012967;28;20805;-62
2023/01/27 04:31:53;;;;;;;5.70;4.40;;;4.10;99.90;;;;;;5019295;28;20508;-62
2023/01/27 04:34:22;;;;;;;6.20;4.43;;;4.10;99.90;;;;;;5034065;28;20466;-62
2023/01/27 04:36:51;;;;;;;6.00;5.20;;;4.10;99.90;;;;;;5042110;28;20491;-62
2023/01/27 04:39:19;;;;;;;5.50;4.50;;;4.10;99.90;;;;;;5053120;28;20494;-62
2023/01/27 04:41:48;;;;;;;4.97;4.23;;;4.10;99.90;;;;;;5052338;28;20480;-62
2023/01/27 04:44:19;;;;;;;5.07;4.57;;;4.10;99.90;;;;;;5052740;28;20553;-62
2023/01/27 04:46:47;;;;;;;5.63;4.13;;;4.10;99.90;;;;;;5033945;28;20471;-62
2023/01/27 04:49:16;;;;;;;6.07;4.37;;;4.10;99.90;;;;;;5014408;28;20475;-62
2023/01/27 04:51:45;;;;;;;6.33;4.80;;;4.10;99.90;;;;;;5012861;28;20470;-62
2023/01/27 04:54:15;;;;;;;4.87;4.37;;;4.10;99.90;;;;;;5013036;28;20987;-62
2023/01/27 04:56:55;;;;;;;5.03;4.53;;;4.10;99.90;;;;;;5013147;28;20939;-62
2023/01/27 04:59:23;;;;;;;6.13;4.53;;;4.00;99.90;;;;;;5013048;28;20820;-62
2023/01/27 05:01:51;;;;;;;5.67;4.00;;;4.10;99.90;;;;;;5023476;28;20487;-62
2023/01/27 05:04:21;;;;;;;4.17;3.63;;;4.00;99.90;;;;;;5033543;28;20842;-62
2023/01/27 05:06:49;;;;;;;4.73;4.10;;;4.10;99.90;;;;;;5042212;28;20814;-62
2023/01/27 05:09:17;;;;;;;4.30;3.77;;;4.00;99.90;;;;;;5020286;28;20472;-63
2023/01/27 05:11:45;;;;;;;4.30;3.70;;;4.00;99.90;;;;;;5016312;28;20464;-62
2023/01/27 05:14:13;;;;;;;3.90;3.50;;;4.10;99.90;;;;;;5016722;28;21028;-62
2023/01/27 05:16:42;;;;;;;4.80;3.93;;;4.00;99.90;;;;;;5032130;28;20486;-62
2023/01/27 05:19:10;;;;;;;4.23;3.90;;;4.00;99.90;;;;;;5036094;28;20459;-62
2023/01/27 05:21:39;;;;;;;7.40;3.50;;;4.00;99.90;;;;;;5036239;28;20520;-62
2023/01/27 05:24:07;;;;;;;4.53;3.83;;;4.10;99.90;;;;;;5036334;28;21047;-62
2023/01/27 05:26:35;;;;;;;5.03;4.03;;;4.20;99.90;;;;;;5020321;28;20892;-62
2023/01/27 05:29:03;;;;;;;5.40;3.57;;;4.20;99.90;;;;;;5016400;28;20475;-62
2023/01/27 05:31:33;;;;;;;5.00;3.60;;;4.30;99.90;;;;;;5024296;28;20523;-62
2023/01/27 05:34:02;;;;;;;3.57;3.27;;;4.10;99.90;;;;;;5035895;28;20979;-62
2023/01/27 05:36:31;;;;;;;3.27;2.87;;;4.20;99.90;;;;;;5045145;28;20509;-62
2023/01/27 05:39:00;;;;;;;4.63;3.03;;;4.10;99.90;;;;;;5039464;28;21085;-62
2023/01/27 05:41:29;;;;;;;4.20;3.17;;;4.10;99.90;;;;;;5034444;28;20474;-62
2023/01/27 05:43:58;;;;;;;3.63;3.00;;;4.10;99.90;;;;;;5023279;28;20479;-62
2023/01/27 05:46:28;;;;;;;3.27;2.97;;;4.10;99.90;;;;;;5015724;28;20473;-62
2023/01/27 05:48:57;;;;;;;3.30;3.00;;;4.10;99.90;;;;;;5016107;28;20835;-62
2023/01/27 05:51:26;;;;;;;4.83;2.93;;;4.10;99.90;;;;;;5027512;28;20482;-62
2023/01/27 05:53:54;;;;;;;3.10;2.80;;;4.20;99.90;;;;;;5035240;28;20466;-62
2023/01/27 05:56:25;;;;;;;2.50;2.30;;;4.10;99.90;;;;;;5035666;28;20870;-62
2023/01/27 05:58:54;;;;;;;2.97;2.63;;;4.10;99.90;;;;;;5038315;28;20822;-62
2023/01/27 06:01:24;;;;;;;3.53;2.60;;;4.10;99.90;;;;;;5034285;28;20865;-62
2023/01/27 06:03:53;;;;;;;3.40;2.70;;;4.20;99.90;;;;;;5035115;28;20491;-62
2023/01/27 06:06:24;;;;;;;3.17;2.30;;;4.00;99.90;;;;;;5048130;28;20965;-62
2023/01/27 06:08:52;;;;;;;2.43;2.10;;;4.10;99.90;;;;;;5043504;28;20987;-62
2023/01/27 06:11:22;;;;;;;2.17;1.80;;;4.00;99.90;;;;;;5033376;28;20978;-62
2023/01/27 06:13:53;;;;;;;2.97;2.00;;;4.00;99.90;;;;;;5015539;28;20486;-62
2023/01/27 06:16:22;;;;;;;1.90;1.60;;;4.00;99.90;;;;;;5035758;28;20493;-62
2023/01/27 06:18:51;;;;;;;2.40;1.63;;;4.00;99.90;;;;;;5029446;28;20477;-62
2023/01/27 06:21:19;;;;;;;2.30;1.43;;;4.00;99.90;;;;;;5023207;28;20558;-62
2023/01/27 06:23:48;;;;;;;1.53;1.43;;;4.00;99.90;;;;;;5023211;28;20982;-62
2023/01/27 06:26:18;;;;;;;2.77;1.53;;;4.00;99.90;;;;;;5023973;28;20502;-62
2023/01/27 06:28:46;;;;;;;2.20;1.43;;;4.10;99.90;;;;;;5022011;28;20501;-62
2023/01/27 06:31:17;;;;;;;1.83;1.50;;;4.00;99.90;;;;;;5034567;28;20479;-62
2023/01/27 06:33:46;;;;;;;2.40;1.50;;;4.00;99.90;;;;;;5034008;28;20523;-62
2023/01/27 06:36:16;;;;;;;2.30;1.60;;;4.00;99.90;;;;;;5043685;28;20564;-62
2023/01/27 06:38:45;;;;;;;1.53;1.30;;;4.00;99.90;;;;;;5030101;28;20474;-62
2023/01/27 06:41:13;;;;;;;1.93;1.30;;;3.90;99.90;;;;;;5019843;28;20567;-62
2023/01/27 06:43:41;;;;;;;2.30;1.50;;;3.90;99.90;;;;;;5017128;28;20470;-62
2023/01/27 06:46:09;;;;;;;1.77;1.40;;;3.90;99.90;;;;;;5030980;28;20983;-62
2023/01/27 06:48:39;;;;;;;2.27;1.70;;;4.00;99.90;;;;;;5022566;28;20470;-62
2023/01/27 06:51:07;;;;;;;3.03;1.87;;;3.90;99.90;;;;;;5027765;28;20465;-62
2023/01/27 06:53:36;;;;;;;1.70;1.60;;;3.90;99.90;;;;;;5026207;28;20466;-62
2023/01/27 06:56:05;;;;;;;2.47;1.70;;;3.90;99.90;;;;;;5026272;28;20480;-62
2023/01/27 06:58:33;;;;;;;2.53;2.00;;;3.90;99.90;;;;;;5022451;28;21023;-62
2023/01/27 07:01:01;;;;;;;2.60;1.70;;;4.00;99.90;;;;;;5033856;28;20474;-62
2023/01/27 07:03:30;;;;;;;2.30;2.10;;;4.00;99.90;;;;;;5034464;28;21060;-62
2023/01/27 07:05:59;;;;;;;3.30;1.70;;;4.10;99.90;;;;;;5045976;28;20498;-63
2023/01/27 07:08:28;;;;;;;2.33;1.93;;;4.00;99.90;;;;;;5026002;28;20463;-62
2023/01/27 07:10:57;;;;;;;2.83;2.40;;;3.90;99.90;;;;;;5022908;28;20480;-62
2023/01/27 07:13:25;;;;;;;2.80;2.20;;;3.80;99.90;;;;;;5050947;28;20964;-62
2023/01/27 07:15:56;;;;;;;3.77;2.20;;;3.80;99.90;;;;;;5034044;28;20989;-62
2023/01/27 07:18:24;;;;;;;2.57;2.30;;;3.70;99.90;;;;;;5034040;28;20968;-62
2023/01/27 07:20:52;;;;;;;2.33;2.13;;;3.70;99.90;;;;;;5034012;28;20459;-62
2023/01/27 07:23:22;;;;;;;3.43;2.50;;;3.70;99.90;;;;;;5033761;28;20476;-62
2023/01/27 07:25:50;;;;;;;2.77;2.47;;;3.70;99.90;;;;;;5033922;28;20988;-62
2023/01/27 07:28:18;;;;;;;2.70;2.50;;;3.70;99.90;;;;;;5033657;28;20876;-62
2023/01/27 07:30:46;;;;;;;4.30;3.00;;;3.70;99.90;;;;;;5033154;28;20475;-62
2023/01/27 07:33:14;;;;;;;5.37;3.43;;;3.80;99.90;;;;;;5033530;28;20470;-62
2023/01/27 07:35:42;;;;;;;3.50;3.10;;;3.80;99.90;;;;;;5045859;28;20470;-62
2023/01/27 07:38:11;;;;;;;4.83;3.60;;;3.90;99.90;;;;;;5037657;28;20496;-62
2023/01/27 07:40:40;;;;;;;4.07;3.50;;;3.90;99.90;;;;;;5053526;28;20827;-62
2023/01/27 07:43:10;;;;;;;4.53;4.00;;;3.80;99.90;;;;;;5053625;28;20813;-62
2023/01/27 07:45:40;;;;;;;5.90;4.00;;;3.80;99.90;;;;;;5038573;28;20470;-62
2023/01/27 07:48:10;;;;;;;5.07;4.30;;;3.80;99.90;;;;;;5033503;28;21023;-62
2023/01/27 07:50:40;;;;;;;4.13;3.57;;;3.70;99.90;;;;;;5033321;28;20473;-62
2023/01/27 07:53:09;;;;;;;4.17;3.53;;;3.80;99.90;;;;;;5033579;28;20466;-62
2023/01/27 07:55:37;;;;;;;5.07;4.07;;;3.80;99.90;;;;;;5033224;28;20882;-62
2023/01/27 07:58:07;;;;;;;4.40;4.00;;;3.80;99.90;;;;;;5026274;28;20497;-62
2023/01/27 08:00:36;;;;;;;4.80;4.10;;;3.70;99.90;;;;;;5028577;28;20473;-62
2023/01/27 08:03:05;;;;;;;5.07;4.53;;;3.70;99.90;;;;;;5043620;28;20475;-62
2023/01/27 08:05:34;;;;;;;4.80;4.30;;;3.70;99.90;;;;;;5040043;28;20466;-63
2023/01/27 08:08:03;;;;;;;6.70;4.40;;;3.70;99.90;;;;;;5041442;28;20474;-63
2023/01/27 08:10:31;;;;;;;4.80;3.97;;;3.70;99.90;;;;;;5017793;28;20474;-62
2023/01/27 08:12:59;;;;;;;5.53;4.00;;;3.70;99.90;;;;;;5019654;28;20471;-62
2023/01/27 08:15:29;;;;;;;4.33;3.30;;;3.70;99.90;;;;;;5019894;28;20475;-62
2023/01/27 08:17:58;;;;;;;4.03;3.63;;;3.70;99.90;;;;;;5025341;28;20808;-62
2023/01/27 08:20:27;;;;;;;3.57;3.23;;;3.60;99.90;;;;;;5013213;28;20569;-62
2023/01/27 08:22:55;;;;;;;4.80;3.77;;;3.70;99.90;;;;;;5021131;28;20992;-62
2023/01/27 08:25:23;;;;;;;4.60;3.83;;;3.60;99.90;;;;;;5033111;28;20570;-62
2023/01/27 08:27:52;;;;;;;4.37;3.97;;;3.70;99.90;;;;;;5033032;28;20960;-62
2023/01/27 08:30:21;;;;;;;4.33;3.93;;;3.70;99.90;;;;;;5032463;28;20502;-62
2023/01/27 08:32:51;;;;;;;6.07;4.47;;;3.70;99.90;;;;;;5032351;28;20580;-62
2023/01/27 08:35:19;;;;;;;3.73;3.27;;;3.80;99.90;;;;;;5036910;28;20465;-62
2023/01/27 08:37:47;;;;;;;3.83;3.50;;;3.80;99.90;;;;;;5044236;28;20494;-62
2023/01/27 08:40:16;;;;;;;3.70;3.40;;;3.80;99.90;;;;;;5026337;28;20467;-62
2023/01/27 08:42:44;;;;;;;3.57;3.23;;;3.80;99.90;;;;;;5012567;28;20472;-62
2023/01/27 08:45:12;;;;;;;3.50;3.20;;;3.80;99.90;;;;;;5014393;28;20545;-62
2023/01/27 08:47:41;;;;;;;4.80;3.40;;;3.80;99.90;;;;;;5016777;28;20575;-62
2023/01/27 08:50:11;;;;;;;4.60;3.37;;;3.80;99.90;;;;;;5016922;28;20467;-62
2023/01/27 08:52:40;;;;;;;3.93;3.20;;;3.80;99.90;;;;;;5016963;28;21016;-62
2023/01/27 08:55:08;;;;;;;4.10;3.20;;;3.80;99.90;;;;;;5016829;28;20466;-62
2023/01/27 08:57:37;;;;;;;4.10;3.60;;;3.80;99.90;;;;;;5018492;28;20901;-62
2023/01/27 09:00:07;;;;;;;4.33;3.13;;;3.80;99.90;;;;;;5055518;28;20474;-62
2023/01/27 09:02:35;;;;;;;3.50;3.20;;;3.80;99.90;;;;;;5037862;28;20880;-62
2023/01/27 09:05:04;;;;;;;3.67;2.90;;;3.70;99.90;;;;;;5038961;28;20467;-62
2023/01/27 09:07:33;;;;;;;4.40;3.20;;;3.70;99.90;;;;;;5046128;28;20461;-62
2023/01/27 09:10:01;;;;;;;3.87;3.40;;;3.80;99.90;;;;;;5047362;28;20532;-62
2023/01/27 09:12:45;;;;;;;3.63;3.10;;;3.70;99.90;;;;;;5049578;28;20483;-62
2023/01/27 09:15:14;;;;;;;3.10;2.80;;;3.70;99.90;;;;;;5056516;28;20871;-62
2023/01/27 09:17:42;;;;;;;3.17;2.87;;;3.70;99.90;;;;;;5056127;28;20485;-62
2023/01/27 09:20:11;;;;;;;4.13;2.83;;;3.70;99.90;;;;;;5034453;28;20467;-62
2023/01/27 09:22:42;;;;;;;3.40;2.90;;;3.70;99.90;;;;;;5017117;28;21001;-62
2023/01/27 09:25:13;;;;;;;4.90;2.93;;;3.70;99.90;;;;;;5026440;28;20464;-62
2023/01/27 09:27:41;;;;;;;3.47;2.87;;;3.80;99.90;;;;;;5030481;28;20473;-62
2023/01/27 09:30:11;;;;;;;3.67;2.67;;;3.90;99.90;;;;;;5018311;28;20495;-62
2023/01/27 09:32:40;;;;;;;3.00;2.10;;;3.80;99.90;;;;;;5029792;28;20492;-62
2023/01/27 09:35:09;;;;;;;3.07;2.27;;;3.90;99.90;;;;;;5041494;28;20946;-62
2023/01/27 09:37:45;;;;;;;2.83;2.50;;;3.80;99.90;;;;;;5048330;28;20828;-63
2023/01/27 09:40:25;;;;;;;2.63;2.43;;;3.80;99.90;;;;;;5013808;28;20481;-62
2023/01/27 09:43:37;;;;;;;2.70;2.50;;;3.80;99.90;;;;;;5013414;28;21553;-62
2023/01/27 09:46:33;;;;;;;4.13;3.17;;;3.80;99.90;;;;;;4960927;28;20847;-62
2023/01/27 09:49:22;;;;;;;4.10;3.10;;;3.90;99.90;;;;;;5008240;28;20845;-63
2023/01/27 09:52:01;;;;;;;4.43;3.03;;;3.90;99.90;;;;;;5026617;28;20536;-62
2023/01/27 09:54:50;;;;;;;3.80;3.17;;;4.00;99.90;;;;;;5020076;28;20477;-62
2023/01/27 09:57:28;;;;;;;4.67;3.20;;;4.00;99.90;;;;;;5010990;28;20476;-62
2023/01/27 10:00:24;;;;;;;3.57;2.77;;;4.00;99.90;;;;;;5010357;28;20480;-62
2023/01/27 10:03:22;;;;;;;3.03;2.70;;;3.90;99.90;;;;;;5009909;28;20495;-62
2023/01/27 10:06:09;;;;;;;2.70;2.50;;;4.00;99.90;;;;;;5023681;28;20459;-62
2023/01/27 10:08:56;;;;;;;2.50;2.30;;;4.00;99.90;;;;;;5023670;28;20469;-62
2023/01/27 10:11:33;;;;;;;2.93;2.13;;;4.00;99.90;;;;;;5026084;28;20521;-62
2023/01/27 10:14:18;;;;;;;5.03;2.50;;;4.00;99.90;;;;;;5014734;28;20493;-62
2023/01/27 10:17:09;;;;;;;3.90;2.60;;;4.00;99.90;;;;;;5008486;28;20487;-62
2023/01/27 10:19:53;;;;;;;2.47;2.27;;;4.10;99.90;;;;;;5011301;28;20499;-62
2023/01/27 10:22:30;;;;;;;3.73;2.10;;;4.10;99.90;;;;;;5008902;28;21156;-62
2023/01/27 10:25:16;;;;;;;4.50;2.30;;;4.10;99.90;;;;;;5010578;28;20486;-62
2023/01/27 10:27:48;;;;;;;2.57;2.00;;;4.10;99.90;;;;;;5022745;28;20466;-62
2023/01/27 10:30:21;;;;;;;2.20;2.00;;;4.10;99.90;;;;;;5024756;28;21009;-62
2023/01/27 10:32:55;;;;;;;2.30;2.10;;;4.10;99.90;;;;;;5024711;28;20980;-62
2023/01/27 10:35:29;;;;;;;2.43;1.90;;;4.20;99.90;;;;;;5024294;28;20466;-62
2023/01/27 10:38:07;;;;;;;2.03;1.93;;;4.20;99.90;;;;;;5024386;28;20494;-62
2023/01/27 10:40:41;;;;;;;2.43;1.63;;;4.10;99.90;;;;;;5023916;28;20480;-62
2023/01/27 10:43:17;;;;;;;3.17;1.80;;;4.10;99.90;;;;;;5025424;28;20480;-62
2023/01/27 10:45:54;;;;;;;1.83;1.73;;;4.10;99.90;;;;;;5020197;28;21120;-62
2023/01/27 10:48:36;;;;;;;2.17;1.80;;;4.10;99.90;;;;;;5007155;28;20458;-62
2023/01/27 10:51:11;;;;;;;2.80;1.60;;;4.20;99.90;;;;;;5011148;28;20987;-62
2023/01/27 10:53:49;;;;;;;2.53;2.10;;;4.20;99.90;;;;;;5009002;28;20819;-62
2023/01/27 10:56:24;;;;;;;2.40;1.63;;;4.20;99.90;;;;;;5009450;28;20471;-62
2023/01/27 10:59:01;;;;;;;2.10;1.83;;;4.20;99.90;;;;;;5016827;28;21109;-62
2023/01/27 11:01:34;;;;;;;2.37;1.93;;;4.10;99.90;;;;;;5024429;28;20575;-62
2023/01/27 11:04:05;;;;;;;2.10;1.90;;;4.10;99.90;;;;;;5016541;28;20493;-62
2023/01/27 11:06:37;;;;;;;2.47;1.77;;;4.10;99.90;;;;;;5015842;28;20544;-62
2023/01/27 11:09:24;;;;;;;3.13;1.83;;;4.00;99.90;;;;;;5016799;28;20527;-62
2023/01/27 11:11:57;;;;;;;1.63;1.50;;;4.20;99.90;;;;;;5016989;28;20472;-62
2023/01/27 11:14:29;;;;;;;2.47;1.83;;;4.10;99.90;;;;;;5018682;28;21087;-62
2023/01/27 11:17:03;;;;;;;2.00;1.80;;;4.10;99.90;;;;;;5013989;28;20474;-62
2023/01/27 11:19:40;;;;;;;2.43;1.90;;;4.10;99.90;;;;;;5016802;28;20940;-62
2023/01/27 11:22:18;;;;;;;3.47;1.93;;;4.20;99.90;;;;;;5015567;28;20475;-62
2023/01/27 11:24:52;;;;;;;3.80;2.10;;;4.20;99.90;;;;;;5015945;28;21654;-62
2023/01/27 11:27:31;;;;;;;2.60;2.10;;;4.30;99.90;;;;;;5015144;28;21254;-62
2023/01/27 11:30:11;;;;;;;2.87;2.20;;;4.30;99.90;;;;;;5028887;28;20474;-62
2023/01/27 11:32:52;;;;;;;2.83;2.10;;;4.30;99.90;;;;;;5016284;28;20477;-62
2023/01/27 11:35:22;;;;;;;3.97;2.40;;;4.30;99.90;;;;;;5023416;28;20480;-62
2023/01/27 11:37:52;;;;;;;2.27;2.07;;;4.30;99.90;;;;;;5022036;28;20471;-62
2023/01/27 11:40:33;;;;;;;2.70;2.17;;;4.20;99.90;;;;;;5024141;28;20586;-62
2023/01/27 11:43:02;;;;;;;2.40;1.80;;;4.30;99.90;;;;;;5022823;28;20489;-62
2023/01/27 11:45:34;;;;;;;3.40;2.20;;;4.30;99.90;;;;;;5014797;28;20834;-62
2023/01/27 11:48:07;;;;;;;2.27;2.07;;;4.30;99.90;;;;;;5010992;28;20982;-62
2023/01/27 11:50:36;;;;;;;3.13;2.20;;;4.20;99.90;;;;;;5011275;28;20550;-62
2023/01/27 11:53:13;;;;;;;2.50;2.27;;;4.20;99.90;;;;;;5015752;28;20835;-62
2023/01/27 11:55:45;;;;;;;2.77;2.03;;;4.10;99.90;;;;;;5014459;28;20478;-62
2023/01/27 11:58:20;;;;;;;4.17;2.20;;;4.10;99.90;;;;;;5013436;28;20485;-62
2023/01/27 12:00:55;;;;;;;2.70;1.90;;;4.00;99.90;;;;;;5015002;28;20490;-62
2023/01/27 12:03:28;;;;;;;3.20;1.93;;;4.10;99.90;;;;;;5024306;28;20481;-62
2023/01/27 12:06:01;;;;;;;2.80;1.90;;;4.10;99.90;;;;;;5022182;28;20502;-61
2023/01/27 12:08:40;;;;;;;2.70;1.70;;;4.10;99.90;;;;;;5021173;28;20474;-61
2023/01/27 12:11:23;;;;;;;2.00;1.80;;;4.10;99.90;;;;;;5014224;28;20473;-62
2023/01/27 12:13:54;;;;;;;1.70;1.40;;;4.00;99.90;;;;;;5013748;28;20968;-61
2023/01/27 12:16:40;;;;;;;3.13;1.40;;;4.00;99.90;;;;;;5013259;28;20982;-62
2023/01/27 12:19:22;;;;;;;1.63;1.30;;;4.10;99.90;;;;;;5013156;28;20495;-62
2023/01/27 12:21:54;;;;;;;2.63;1.33;;;4.10;99.90;;;;;;5023775;28;20970;-61
2023/01/27 12:24:27;;;;;;;1.83;1.43;;;4.10;99.90;;;;;;5023588;28;20462;-62
2023/01/27 12:26:57;;;;;;;2.27;1.40;;;4.10;99.90;;;;;;5022887;28;21318;-62
2023/01/27 12:29:30;;;;;;;3.80;1.80;;;4.10;99.90;;;;;;5023438;28;20513;-61
2023/01/27 12:32:01;;;;;;;2.60;1.70;;;4.10;99.90;;;;;;5023719;28;20982;-61
2023/01/27 12:34:32;;;;;;;3.37;1.70;;;4.00;99.90;;;;;;5024523;28;20470;-61
2023/01/27 12:37:02;;;;;;;3.07;1.73;;;4.00;99.90;;;;;;5019011;28;20545;-62
2023/01/27 12:39:51;;;;;;;1.77;1.33;;;4.00;99.90;;;;;;5014102;28;20480;-62
2023/01/27 12:42:40;;;;;;;2.70;1.30;;;4.00;99.90;;;;;;5012984;28;20478;-61
2023/01/27 12:45:29;;;;;;;2.10;1.13;;;4.00;99.90;;;;;;5016088;28;20487;-61
2023/01/27 12:48:18;;;;;;;2.73;1.50;;;4.10;99.90;;;;;;5013492;28;21647;-61
2023/01/27 12:51:03;;;;;;;1.77;1.10;;;4.10;99.90;;;;;;5011876;28;20481;-62
2023/01/27 12:53:31;;;;;;;2.13;1.30;;;4.10;99.90;;;;;;5013070;28;20841;-62
2023/01/27 12:56:04;;;;;;;1.97;1.30;;;4.10;99.90;;;;;;5015718;28;20473;-61
2023/01/27 12:58:36;;;;;;;2.03;1.50;;;4.10;99.90;;;;;;5008872;28;20471;-62
2023/01/27 13:01:07;;;;;;;2.57;1.43;;;4.10;99.90;;;;;;5013016;28;20987;-62
2023/01/27 13:03:42;;;;;;;2.87;1.53;;;4.10;99.90;;;;;;5011722;28;20471;-61
2023/01/27 13:06:15;;;;;;;2.27;1.43;;;4.10;99.90;;;;;;5013596;28;20490;-61
2023/01/27 13:08:45;;;;;;;1.40;1.30;;;4.10;99.90;;;;;;5012210;28;20568;-62
2023/01/27 13:11:13;;;;;;;2.27;1.40;;;4.10;99.90;;;;;;5013450;28;20476;-62
2023/01/27 13:13:50;;;;;;;1.97;1.57;;;4.10;99.90;;;;;;5012920;28;20483;-61
2023/01/27 13:16:26;;;;;;;2.67;1.40;;;4.00;99.90;;;;;;5015813;28;20494;-61
2023/01/27 13:18:57;;;;;;;1.90;1.50;;;4.00;99.90;;;;;;5043250;28;20472;-61
2023/01/27 13:21:28;;;;;;;1.33;1.17;;;4.00;99.90;;;;;;5051903;28;20566;-62
2023/01/27 13:23:59;;;;;;;3.47;1.67;;;4.00;99.90;;;;;;5052670;28;21056;-61
2023/01/27 13:26:30;;;;;;;1.27;1.17;;;4.00;99.90;;;;;;5051994;28;20520;-62
2023/01/27 13:29:06;;;;;;;1.43;1.30;;;4.00;99.90;;;;;;5034973;28;20466;-61
2023/01/27 13:31:42;;;;;;;1.80;1.20;;;4.10;99.90;;;;;;5033573;28;20479;-61
2023/01/27 13:34:21;;;;;;;3.00;1.23;;;4.10;99.90;;;;;;5028079;28;20469;-61
2023/01/27 13:36:53;;;;;;;2.33;1.30;;;4.20;99.90;;;;;;5041773;28;20466;-62
2023/01/27 13:39:28;;;;;;;3.57;1.33;;;4.10;99.90;;;;;;5042358;28;20491;-62
2023/01/27 13:42:09;;;;;;;1.30;1.20;;;4.10;99.90;;;;;;5036033;28;20480;-61
2023/01/27 13:44:42;;;;;;;1.97;1.30;;;4.10;99.90;;;;;;5036112;28;20474;-61
2023/01/27 13:47:16;;;;;;;2.17;1.50;;;4.10;99.90;;;;;;5036190;28;20467;-61